sensor_id;sensor_type;location;lat;lon;timestamp;P1;durP1;ratioP1;P2;durP2;ratioP2
15608;SDS011;28705;45.642;13.758;2022-08-19T00:02:05;5.88;;;3.72;;
15608;SDS011;28705;45.642;13.758;2022-08-19T00:04:34;4.55;;;2.75;;
15608;SDS011;28705;45.642;13.758;2022-08-19T00:07:02;4.45;;;2.95;;
15608;SDS011;28705;45.642;13.758;2022-08-19T00:09:31;7.25;;;3.60;;
15608;SDS011;28705;45.642;13.758;2022-08-19T00:12:00;5.72;;;2.85;;
15608;SDS011;28705;45.642;13.758;2022-08-19T00:14:27;6.38;;;3.50;;
15608;SDS011;28705;45.642;13.758;2022-08-19T00:16:56;5.40;;;3.20;;
15608;SDS011;28705;45.642;13.758;2022-08-19T00:19:29;4.45;;;2.67;;
15608;SDS011;28705;45.642;13.758;2022-08-19T00:21:58;4.82;;;3.58;;
15608;SDS011;28705;45.642;13.758;2022-08-19T00:24:27;6.07;;;3.28;;
15608;SDS011;28705;45.642;13.758;2022-08-19T00:26:57;6.65;;;3.15;;
15608;SDS011;28705;45.642;13.758;2022-08-19T00:29:27;5.63;;;2.58;;
15608;SDS011;28705;45.642;13.758;2022-08-19T00:31:56;4.00;;;2.88;;
15608;SDS011;28705;45.642;13.758;2022-08-19T00:34:25;5.65;;;3.22;;
15608;SDS011;28705;45.642;13.758;2022-08-19T00:36:57;5.82;;;3.35;;
15608;SDS011;28705;45.642;13.758;2022-08-19T00:39:25;6.47;;;3.42;;
15608;SDS011;28705;45.642;13.758;2022-08-19T00:41:53;5.25;;;3.42;;
15608;SDS011;28705;45.642;13.758;2022-08-19T00:44:21;3.83;;;2.60;;
15608;SDS011;28705;45.642;13.758;2022-08-19T00:46:52;4.57;;;2.80;;
15608;SDS011;28705;45.642;13.758;2022-08-19T00:49:25;5.95;;;2.67;;
15608;SDS011;28705;45.642;13.758;2022-08-19T00:52:00;5.85;;;2.85;;
15608;SDS011;28705;45.642;13.758;2022-08-19T00:54:35;5.65;;;3.17;;
15608;SDS011;28705;45.642;13.758;2022-08-19T00:57:04;4.07;;;2.50;;
15608;SDS011;28705;45.642;13.758;2022-08-19T00:59:34;3.92;;;3.38;;
15608;SDS011;28705;45.642;13.758;2022-08-19T01:02:04;5.53;;;3.45;;
15608;SDS011;28705;45.642;13.758;2022-08-19T01:04:31;4.68;;;2.88;;
15608;SDS011;28705;45.642;13.758;2022-08-19T01:06:58;6.60;;;3.45;;
15608;SDS011;28705;45.642;13.758;2022-08-19T01:09:27;4.78;;;3.15;;
15608;SDS011;28705;45.642;13.758;2022-08-19T01:11:55;3.28;;;2.70;;
15608;SDS011;28705;45.642;13.758;2022-08-19T01:14:23;7.45;;;3.30;;
15608;SDS011;28705;45.642;13.758;2022-08-19T01:16:51;6.43;;;3.25;;
15608;SDS011;28705;45.642;13.758;2022-08-19T01:19:21;5.43;;;2.72;;
15608;SDS011;28705;45.642;13.758;2022-08-19T01:21:55;4.45;;;3.13;;
15608;SDS011;28705;45.642;13.758;2022-08-19T01:24:26;5.65;;;3.20;;
15608;SDS011;28705;45.642;13.758;2022-08-19T01:26:55;11.18;;;3.60;;
15608;SDS011;28705;45.642;13.758;2022-08-19T01:29:23;7.53;;;3.83;;
15608;SDS011;28705;45.642;13.758;2022-08-19T01:31:50;17.88;;;5.65;;
15608;SDS011;28705;45.642;13.758;2022-08-19T01:34:18;18.23;;;6.88;;
15608;SDS011;28705;45.642;13.758;2022-08-19T01:36:46;18.10;;;6.90;;
15608;SDS011;28705;45.642;13.758;2022-08-19T01:39:15;20.88;;;7.38;;
15608;SDS011;28705;45.642;13.758;2022-08-19T01:41:45;17.75;;;6.85;;
15608;SDS011;28705;45.642;13.758;2022-08-19T01:44:12;15.23;;;6.53;;
15608;SDS011;28705;45.642;13.758;2022-08-19T01:46:41;20.45;;;6.35;;
15608;SDS011;28705;45.642;13.758;2022-08-19T01:49:09;15.75;;;6.13;;
15608;SDS011;28705;45.642;13.758;2022-08-19T01:51:36;15.40;;;5.25;;
15608;SDS011;28705;45.642;13.758;2022-08-19T01:54:04;15.93;;;5.97;;
15608;SDS011;28705;45.642;13.758;2022-08-19T01:56:31;14.35;;;5.88;;
15608;SDS011;28705;45.642;13.758;2022-08-19T01:59:00;10.20;;;5.80;;
15608;SDS011;28705;45.642;13.758;2022-08-19T02:01:29;13.40;;;5.43;;
15608;SDS011;28705;45.642;13.758;2022-08-19T02:03:57;12.27;;;5.55;;
15608;SDS011;28705;45.642;13.758;2022-08-19T02:06:25;13.45;;;5.15;;
15608;SDS011;28705;45.642;13.758;2022-08-19T02:08:53;14.68;;;5.68;;
15608;SDS011;28705;45.642;13.758;2022-08-19T02:11:21;8.10;;;4.75;;
15608;SDS011;28705;45.642;13.758;2022-08-19T02:13:51;8.45;;;4.07;;
15608;SDS011;28705;45.642;13.758;2022-08-19T02:16:20;10.85;;;4.75;;
15608;SDS011;28705;45.642;13.758;2022-08-19T02:18:48;8.63;;;3.97;;
15608;SDS011;28705;45.642;13.758;2022-08-19T02:21:16;10.80;;;4.50;;
15608;SDS011;28705;45.642;13.758;2022-08-19T02:23:44;9.30;;;4.03;;
15608;SDS011;28705;45.642;13.758;2022-08-19T02:26:11;8.23;;;4.63;;
15608;SDS011;28705;45.642;13.758;2022-08-19T02:28:39;8.38;;;4.13;;
15608;SDS011;28705;45.642;13.758;2022-08-19T02:31:08;8.05;;;4.03;;
15608;SDS011;28705;45.642;13.758;2022-08-19T02:33:37;9.73;;;3.72;;
15608;SDS011;28705;45.642;13.758;2022-08-19T02:36:05;6.35;;;3.33;;
15608;SDS011;28705;45.642;13.758;2022-08-19T02:38:33;6.38;;;3.75;;
15608;SDS011;28705;45.642;13.758;2022-08-19T02:41:02;8.93;;;3.53;;
15608;SDS011;28705;45.642;13.758;2022-08-19T02:43:37;5.97;;;3.40;;
15608;SDS011;28705;45.642;13.758;2022-08-19T02:46:11;6.40;;;3.28;;
15608;SDS011;28705;45.642;13.758;2022-08-19T02:48:40;7.60;;;3.53;;
15608;SDS011;28705;45.642;13.758;2022-08-19T02:51:08;5.28;;;2.67;;
15608;SDS011;28705;45.642;13.758;2022-08-19T02:53:41;2.97;;;2.67;;
15608;SDS011;28705;45.642;13.758;2022-08-19T02:56:08;5.50;;;2.75;;
15608;SDS011;28705;45.642;13.758;2022-08-19T02:58:35;6.57;;;3.47;;
15608;SDS011;28705;45.642;13.758;2022-08-19T03:01:02;6.35;;;2.97;;
15608;SDS011;28705;45.642;13.758;2022-08-19T03:03:29;5.05;;;2.50;;
15608;SDS011;28705;45.642;13.758;2022-08-19T03:06:08;7.13;;;2.55;;
15608;SDS011;28705;45.642;13.758;2022-08-19T03:08:37;4.20;;;2.60;;
15608;SDS011;28705;45.642;13.758;2022-08-19T03:11:05;3.47;;;2.17;;
15608;SDS011;28705;45.642;13.758;2022-08-19T03:13:32;3.20;;;2.47;;
15608;SDS011;28705;45.642;13.758;2022-08-19T03:16:03;3.42;;;2.38;;
15608;SDS011;28705;45.642;13.758;2022-08-19T03:18:31;4.47;;;2.72;;
15608;SDS011;28705;45.642;13.758;2022-08-19T03:20:58;6.80;;;2.72;;
15608;SDS011;28705;45.642;13.758;2022-08-19T03:23:26;2.67;;;2.00;;
15608;SDS011;28705;45.642;13.758;2022-08-19T03:25:53;4.13;;;2.47;;
15608;SDS011;28705;45.642;13.758;2022-08-19T03:28:20;4.80;;;2.47;;
15608;SDS011;28705;45.642;13.758;2022-08-19T03:30:55;5.30;;;2.22;;
15608;SDS011;28705;45.642;13.758;2022-08-19T03:33:25;3.15;;;2.15;;
15608;SDS011;28705;45.642;13.758;2022-08-19T03:35:59;6.20;;;2.40;;
15608;SDS011;28705;45.642;13.758;2022-08-19T03:38:29;4.70;;;1.90;;
15608;SDS011;28705;45.642;13.758;2022-08-19T03:40:57;4.55;;;2.25;;
15608;SDS011;28705;45.642;13.758;2022-08-19T03:43:24;3.53;;;2.30;;
15608;SDS011;28705;45.642;13.758;2022-08-19T03:45:59;3.15;;;1.77;;
15608;SDS011;28705;45.642;13.758;2022-08-19T03:48:27;5.03;;;2.50;;
15608;SDS011;28705;45.642;13.758;2022-08-19T03:50:55;3.75;;;2.45;;
15608;SDS011;28705;45.642;13.758;2022-08-19T03:53:24;4.43;;;2.00;;
15608;SDS011;28705;45.642;13.758;2022-08-19T03:55:53;3.92;;;2.40;;
15608;SDS011;28705;45.642;13.758;2022-08-19T03:58:21;3.67;;;2.10;;
15608;SDS011;28705;45.642;13.758;2022-08-19T04:00:48;4.63;;;1.98;;
15608;SDS011;28705;45.642;13.758;2022-08-19T04:03:16;4.65;;;1.90;;
15608;SDS011;28705;45.642;13.758;2022-08-19T04:05:44;3.15;;;2.40;;
15608;SDS011;28705;45.642;13.758;2022-08-19T04:08:12;7.88;;;3.20;;
15608;SDS011;28705;45.642;13.758;2022-08-19T04:10:44;5.20;;;2.70;;
15608;SDS011;28705;45.642;13.758;2022-08-19T04:13:12;7.60;;;3.40;;
15608;SDS011;28705;45.642;13.758;2022-08-19T04:15:40;11.65;;;3.75;;
15608;SDS011;28705;45.642;13.758;2022-08-19T04:18:08;9.23;;;3.38;;
15608;SDS011;28705;45.642;13.758;2022-08-19T04:20:40;9.48;;;3.30;;
15608;SDS011;28705;45.642;13.758;2022-08-19T04:23:08;9.70;;;4.18;;
15608;SDS011;28705;45.642;13.758;2022-08-19T04:25:36;8.10;;;3.72;;
15608;SDS011;28705;45.642;13.758;2022-08-19T04:28:04;8.68;;;3.55;;
15608;SDS011;28705;45.642;13.758;2022-08-19T04:30:37;8.52;;;3.20;;
15608;SDS011;28705;45.642;13.758;2022-08-19T04:33:05;7.90;;;3.22;;
15608;SDS011;28705;45.642;13.758;2022-08-19T04:35:36;6.10;;;3.15;;
15608;SDS011;28705;45.642;13.758;2022-08-19T04:38:05;4.20;;;2.72;;
15608;SDS011;28705;45.642;13.758;2022-08-19T04:40:33;7.35;;;2.97;;
15608;SDS011;28705;45.642;13.758;2022-08-19T04:43:26;8.10;;;2.60;;
15608;SDS011;28705;45.642;13.758;2022-08-19T04:45:55;7.32;;;2.72;;
15608;SDS011;28705;45.642;13.758;2022-08-19T04:48:22;5.88;;;2.47;;
15608;SDS011;28705;45.642;13.758;2022-08-19T04:50:51;7.00;;;1.98;;
15608;SDS011;28705;45.642;13.758;2022-08-19T04:53:22;5.18;;;2.42;;
15608;SDS011;28705;45.642;13.758;2022-08-19T04:55:53;2.65;;;1.70;;
15608;SDS011;28705;45.642;13.758;2022-08-19T04:58:21;3.13;;;1.25;;
15608;SDS011;28705;45.642;13.758;2022-08-19T05:00:48;2.47;;;1.38;;
15608;SDS011;28705;45.642;13.758;2022-08-19T05:03:16;2.85;;;1.58;;
15608;SDS011;28705;45.642;13.758;2022-08-19T05:05:44;2.90;;;1.40;;
15608;SDS011;28705;45.642;13.758;2022-08-19T05:08:14;4.32;;;1.17;;
15608;SDS011;28705;45.642;13.758;2022-08-19T05:10:45;3.13;;;1.35;;
15608;SDS011;28705;45.642;13.758;2022-08-19T05:13:13;3.88;;;1.50;;
15608;SDS011;28705;45.642;13.758;2022-08-19T05:15:41;3.20;;;1.35;;
15608;SDS011;28705;45.642;13.758;2022-08-19T05:18:08;3.28;;;1.40;;
15608;SDS011;28705;45.642;13.758;2022-08-19T05:20:54;2.00;;;1.20;;
15608;SDS011;28705;45.642;13.758;2022-08-19T05:23:39;1.95;;;1.05;;
15608;SDS011;28705;45.642;13.758;2022-08-19T05:26:06;2.30;;;0.70;;
15608;SDS011;28705;45.642;13.758;2022-08-19T05:28:34;1.35;;;0.90;;
15608;SDS011;28705;45.642;13.758;2022-08-19T05:31:01;2.60;;;1.10;;
15608;SDS011;28705;45.642;13.758;2022-08-19T05:33:28;1.48;;;0.80;;
15608;SDS011;28705;45.642;13.758;2022-08-19T05:35:57;1.38;;;0.73;;
15608;SDS011;28705;45.642;13.758;2022-08-19T05:38:24;1.75;;;0.80;;
15608;SDS011;28705;45.642;13.758;2022-08-19T05:40:53;1.65;;;0.82;;
15608;SDS011;28705;45.642;13.758;2022-08-19T05:43:20;1.35;;;0.80;;
15608;SDS011;28705;45.642;13.758;2022-08-19T05:45:47;1.27;;;0.85;;
15608;SDS011;28705;45.642;13.758;2022-08-19T05:48:15;1.48;;;0.68;;
15608;SDS011;28705;45.642;13.758;2022-08-19T05:50:45;1.80;;;0.90;;
15608;SDS011;28705;45.642;13.758;2022-08-19T05:53:16;2.25;;;0.80;;
15608;SDS011;28705;45.642;13.758;2022-08-19T05:55:43;0.95;;;0.70;;
15608;SDS011;28705;45.642;13.758;2022-08-19T05:58:10;2.08;;;0.80;;
15608;SDS011;28705;45.642;13.758;2022-08-19T06:00:38;1.63;;;0.70;;
15608;SDS011;28705;45.642;13.758;2022-08-19T06:03:05;2.15;;;0.85;;
15608;SDS011;28705;45.642;13.758;2022-08-19T06:05:32;1.30;;;0.73;;
15608;SDS011;28705;45.642;13.758;2022-08-19T06:07:59;1.02;;;0.60;;
15608;SDS011;28705;45.642;13.758;2022-08-19T06:10:27;0.88;;;0.68;;
15608;SDS011;28705;45.642;13.758;2022-08-19T06:12:55;1.90;;;1.00;;
15608;SDS011;28705;45.642;13.758;2022-08-19T06:15:22;1.25;;;0.90;;
15608;SDS011;28705;45.642;13.758;2022-08-19T06:17:50;1.52;;;1.27;;
15608;SDS011;28705;45.642;13.758;2022-08-19T06:20:17;1.58;;;1.05;;
15608;SDS011;28705;45.642;13.758;2022-08-19T06:22:46;0.80;;;0.60;;
15608;SDS011;28705;45.642;13.758;2022-08-19T06:25:15;1.65;;;1.00;;
15608;SDS011;28705;45.642;13.758;2022-08-19T06:27:44;1.23;;;0.90;;
15608;SDS011;28705;45.642;13.758;2022-08-19T06:30:11;1.25;;;1.02;;
15608;SDS011;28705;45.642;13.758;2022-08-19T06:32:39;2.33;;;1.05;;
15608;SDS011;28705;45.642;13.758;2022-08-19T06:35:06;1.45;;;1.10;;
15608;SDS011;28705;45.642;13.758;2022-08-19T06:37:33;2.33;;;1.02;;
15608;SDS011;28705;45.642;13.758;2022-08-19T06:40:02;2.03;;;0.80;;
15608;SDS011;28705;45.642;13.758;2022-08-19T06:42:30;3.03;;;1.15;;
15608;SDS011;28705;45.642;13.758;2022-08-19T06:44:59;2.95;;;0.90;;
15608;SDS011;28705;45.642;13.758;2022-08-19T06:47:28;3.00;;;1.02;;
15608;SDS011;28705;45.642;13.758;2022-08-19T06:49:56;1.90;;;1.10;;
15608;SDS011;28705;45.642;13.758;2022-08-19T06:52:27;2.03;;;1.10;;
15608;SDS011;28705;45.642;13.758;2022-08-19T06:54:54;2.85;;;1.27;;
15608;SDS011;28705;45.642;13.758;2022-08-19T06:57:23;2.38;;;1.50;;
15608;SDS011;28705;45.642;13.758;2022-08-19T06:59:50;4.03;;;1.60;;
15608;SDS011;28705;45.642;13.758;2022-08-19T07:02:19;2.72;;;1.65;;
15608;SDS011;28705;45.642;13.758;2022-08-19T07:04:48;3.35;;;1.45;;
15608;SDS011;28705;45.642;13.758;2022-08-19T07:07:15;2.88;;;1.20;;
15608;SDS011;28705;45.642;13.758;2022-08-19T07:09:43;2.78;;;1.30;;
15608;SDS011;28705;45.642;13.758;2022-08-19T07:12:11;4.72;;;1.88;;
15608;SDS011;28705;45.642;13.758;2022-08-19T07:14:40;3.00;;;1.02;;
15608;SDS011;28705;45.642;13.758;2022-08-19T07:17:11;3.33;;;1.40;;
15608;SDS011;28705;45.642;13.758;2022-08-19T07:19:40;5.13;;;1.38;;
15608;SDS011;28705;45.642;13.758;2022-08-19T07:22:08;2.15;;;1.67;;
15608;SDS011;28705;45.642;13.758;2022-08-19T07:24:36;3.05;;;1.25;;
15608;SDS011;28705;45.642;13.758;2022-08-19T07:27:04;2.60;;;1.15;;
15608;SDS011;28705;45.642;13.758;2022-08-19T07:29:34;2.72;;;1.00;;
15608;SDS011;28705;45.642;13.758;2022-08-19T07:32:03;1.58;;;1.00;;
15608;SDS011;28705;45.642;13.758;2022-08-19T07:34:31;2.97;;;1.20;;
15608;SDS011;28705;45.642;13.758;2022-08-19T07:37:03;3.55;;;1.10;;
15608;SDS011;28705;45.642;13.758;2022-08-19T07:39:32;2.35;;;1.20;;
15608;SDS011;28705;45.642;13.758;2022-08-19T07:42:02;1.95;;;0.95;;
15608;SDS011;28705;45.642;13.758;2022-08-19T07:44:32;5.22;;;1.20;;
15608;SDS011;28705;45.642;13.758;2022-08-19T07:47:00;1.92;;;1.00;;
15608;SDS011;28705;45.642;13.758;2022-08-19T07:49:28;3.38;;;1.30;;
15608;SDS011;28705;45.642;13.758;2022-08-19T07:51:56;2.30;;;1.00;;
15608;SDS011;28705;45.642;13.758;2022-08-19T07:54:28;3.25;;;1.20;;
15608;SDS011;28705;45.642;13.758;2022-08-19T07:56:58;1.95;;;1.23;;
15608;SDS011;28705;45.642;13.758;2022-08-19T07:59:25;3.75;;;1.40;;
15608;SDS011;28705;45.642;13.758;2022-08-19T08:01:54;5.88;;;1.50;;
15608;SDS011;28705;45.642;13.758;2022-08-19T08:04:24;3.97;;;1.63;;
15608;SDS011;28705;45.642;13.758;2022-08-19T08:07:08;4.45;;;1.23;;
15608;SDS011;28705;45.642;13.758;2022-08-19T08:09:54;6.07;;;1.50;;
15608;SDS011;28705;45.642;13.758;2022-08-19T08:12:22;2.58;;;1.20;;
15608;SDS011;28705;45.642;13.758;2022-08-19T08:14:54;6.38;;;1.90;;
15608;SDS011;28705;45.642;13.758;2022-08-19T08:17:24;8.68;;;1.92;;
15608;SDS011;28705;45.642;13.758;2022-08-19T08:19:55;4.10;;;1.50;;
15608;SDS011;28705;45.642;13.758;2022-08-19T08:22:22;6.70;;;1.70;;
15608;SDS011;28705;45.642;13.758;2022-08-19T08:25:10;4.63;;;2.40;;
15608;SDS011;28705;45.642;13.758;2022-08-19T08:27:39;9.35;;;2.65;;
15608;SDS011;28705;45.642;13.758;2022-08-19T08:30:07;4.93;;;2.53;;
15608;SDS011;28705;45.642;13.758;2022-08-19T08:32:35;8.05;;;2.38;;
15608;SDS011;28705;45.642;13.758;2022-08-19T08:35:03;5.30;;;1.95;;
15608;SDS011;28705;45.642;13.758;2022-08-19T08:37:30;4.93;;;2.72;;
15608;SDS011;28705;45.642;13.758;2022-08-19T08:39:57;4.03;;;2.00;;
15608;SDS011;28705;45.642;13.758;2022-08-19T08:42:27;5.07;;;1.92;;
15608;SDS011;28705;45.642;13.758;2022-08-19T08:45:00;7.05;;;2.50;;
15608;SDS011;28705;45.642;13.758;2022-08-19T08:47:31;5.05;;;2.00;;
15608;SDS011;28705;45.642;13.758;2022-08-19T08:50:04;5.28;;;2.47;;
15608;SDS011;28705;45.642;13.758;2022-08-19T08:52:35;9.07;;;2.70;;
15608;SDS011;28705;45.642;13.758;2022-08-19T08:55:08;7.75;;;3.15;;
15608;SDS011;28705;45.642;13.758;2022-08-19T08:57:49;3.88;;;2.33;;
15608;SDS011;28705;45.642;13.758;2022-08-19T09:00:25;4.72;;;2.17;;
15608;SDS011;28705;45.642;13.758;2022-08-19T09:02:56;5.50;;;2.78;;
15608;SDS011;28705;45.642;13.758;2022-08-19T09:05:25;6.30;;;2.60;;
15608;SDS011;28705;45.642;13.758;2022-08-19T09:08:02;10.13;;;3.33;;
15608;SDS011;28705;45.642;13.758;2022-08-19T09:10:34;6.90;;;3.33;;
15608;SDS011;28705;45.642;13.758;2022-08-19T09:13:07;7.85;;;2.78;;
15608;SDS011;28705;45.642;13.758;2022-08-19T09:15:42;5.00;;;2.65;;
15608;SDS011;28705;45.642;13.758;2022-08-19T09:18:13;4.97;;;2.45;;
15608;SDS011;28705;45.642;13.758;2022-08-19T09:20:41;5.15;;;2.88;;
15608;SDS011;28705;45.642;13.758;2022-08-19T09:23:08;4.93;;;2.67;;
15608;SDS011;28705;45.642;13.758;2022-08-19T09:25:36;9.50;;;3.25;;
15608;SDS011;28705;45.642;13.758;2022-08-19T09:28:06;7.32;;;3.00;;
15608;SDS011;28705;45.642;13.758;2022-08-19T09:30:36;11.63;;;3.40;;
15608;SDS011;28705;45.642;13.758;2022-08-19T09:33:06;7.40;;;3.08;;
15608;SDS011;28705;45.642;13.758;2022-08-19T09:35:34;8.90;;;3.15;;
15608;SDS011;28705;45.642;13.758;2022-08-19T09:38:01;10.65;;;3.47;;
15608;SDS011;28705;45.642;13.758;2022-08-19T09:40:29;9.60;;;3.13;;
15608;SDS011;28705;45.642;13.758;2022-08-19T09:42:57;6.22;;;3.15;;
15608;SDS011;28705;45.642;13.758;2022-08-19T09:45:28;7.15;;;3.78;;
15608;SDS011;28705;45.642;13.758;2022-08-19T09:47:56;5.90;;;3.60;;
15608;SDS011;28705;45.642;13.758;2022-08-19T09:50:23;10.82;;;4.47;;
15608;SDS011;28705;45.642;13.758;2022-08-19T09:52:51;9.38;;;4.25;;
15608;SDS011;28705;45.642;13.758;2022-08-19T09:55:19;14.23;;;4.32;;
15608;SDS011;28705;45.642;13.758;2022-08-19T09:57:46;10.57;;;4.78;;
15608;SDS011;28705;45.642;13.758;2022-08-19T10:00:13;14.77;;;5.25;;
15608;SDS011;28705;45.642;13.758;2022-08-19T10:02:42;11.50;;;4.50;;
15608;SDS011;28705;45.642;13.758;2022-08-19T10:05:09;10.23;;;4.25;;
15608;SDS011;28705;45.642;13.758;2022-08-19T10:07:53;12.13;;;4.60;;
15608;SDS011;28705;45.642;13.758;2022-08-19T10:10:20;13.68;;;4.93;;
15608;SDS011;28705;45.642;13.758;2022-08-19T10:12:47;14.02;;;5.45;;
15608;SDS011;28705;45.642;13.758;2022-08-19T10:15:14;14.52;;;5.63;;
15608;SDS011;28705;45.642;13.758;2022-08-19T10:17:46;9.95;;;4.70;;
15608;SDS011;28705;45.642;13.758;2022-08-19T10:20:13;12.90;;;5.88;;
15608;SDS011;28705;45.642;13.758;2022-08-19T10:22:40;10.52;;;5.00;;
15608;SDS011;28705;45.642;13.758;2022-08-19T10:25:08;11.68;;;5.75;;
15608;SDS011;28705;45.642;13.758;2022-08-19T10:27:36;15.88;;;5.45;;
15608;SDS011;28705;45.642;13.758;2022-08-19T10:30:03;14.82;;;5.18;;
15608;SDS011;28705;45.642;13.758;2022-08-19T10:32:31;12.60;;;5.38;;
15608;SDS011;28705;45.642;13.758;2022-08-19T10:35:00;14.85;;;6.35;;
15608;SDS011;28705;45.642;13.758;2022-08-19T10:37:27;19.75;;;6.65;;
15608;SDS011;28705;45.642;13.758;2022-08-19T10:39:55;16.75;;;7.13;;
15608;SDS011;28705;45.642;13.758;2022-08-19T10:42:22;23.75;;;7.00;;
15608;SDS011;28705;45.642;13.758;2022-08-19T10:44:49;25.67;;;7.72;;
15608;SDS011;28705;45.642;13.758;2022-08-19T10:47:16;17.80;;;6.35;;
15608;SDS011;28705;45.642;13.758;2022-08-19T10:49:43;13.45;;;5.47;;
15608;SDS011;28705;45.642;13.758;2022-08-19T10:52:29;14.15;;;5.72;;
15608;SDS011;28705;45.642;13.758;2022-08-19T10:54:59;11.10;;;4.82;;
15608;SDS011;28705;45.642;13.758;2022-08-19T10:57:44;9.05;;;4.32;;
15608;SDS011;28705;45.642;13.758;2022-08-19T11:00:11;6.28;;;3.30;;
15608;SDS011;28705;45.642;13.758;2022-08-19T11:02:43;7.40;;;3.30;;
15608;SDS011;28705;45.642;13.758;2022-08-19T11:05:10;6.18;;;3.22;;
15608;SDS011;28705;45.642;13.758;2022-08-19T11:07:40;7.90;;;3.13;;
15608;SDS011;28705;45.642;13.758;2022-08-19T11:10:10;4.93;;;3.40;;
15608;SDS011;28705;45.642;13.758;2022-08-19T11:12:42;8.00;;;3.80;;
15608;SDS011;28705;45.642;13.758;2022-08-19T11:15:11;5.50;;;3.00;;
15608;SDS011;28705;45.642;13.758;2022-08-19T11:17:38;7.15;;;3.40;;
15608;SDS011;28705;45.642;13.758;2022-08-19T11:20:08;6.25;;;3.40;;
15608;SDS011;28705;45.642;13.758;2022-08-19T11:22:36;6.45;;;3.45;;
15608;SDS011;28705;45.642;13.758;2022-08-19T11:25:05;6.55;;;3.10;;
15608;SDS011;28705;45.642;13.758;2022-08-19T11:27:33;6.78;;;4.00;;
15608;SDS011;28705;45.642;13.758;2022-08-19T11:30:04;9.63;;;3.80;;
15608;SDS011;28705;45.642;13.758;2022-08-19T11:32:32;5.50;;;3.55;;
15608;SDS011;28705;45.642;13.758;2022-08-19T11:34:59;5.93;;;3.95;;
15608;SDS011;28705;45.642;13.758;2022-08-19T11:37:27;5.82;;;3.47;;
15608;SDS011;28705;45.642;13.758;2022-08-19T11:40:05;6.78;;;3.90;;
15608;SDS011;28705;45.642;13.758;2022-08-19T11:42:35;6.75;;;4.32;;
15608;SDS011;28705;45.642;13.758;2022-08-19T11:45:19;7.30;;;4.45;;
15608;SDS011;28705;45.642;13.758;2022-08-19T11:47:46;7.75;;;3.55;;
15608;SDS011;28705;45.642;13.758;2022-08-19T11:50:13;8.52;;;3.40;;
15608;SDS011;28705;45.642;13.758;2022-08-19T11:52:40;6.10;;;3.35;;
15608;SDS011;28705;45.642;13.758;2022-08-19T11:55:10;7.72;;;3.15;;
15608;SDS011;28705;45.642;13.758;2022-08-19T11:57:38;5.35;;;3.35;;
15608;SDS011;28705;45.642;13.758;2022-08-19T12:00:06;6.38;;;3.92;;
15608;SDS011;28705;45.642;13.758;2022-08-19T12:02:35;7.65;;;2.88;;
15608;SDS011;28705;45.642;13.758;2022-08-19T12:05:02;5.15;;;3.38;;
15608;SDS011;28705;45.642;13.758;2022-08-19T12:07:30;5.53;;;2.92;;
15608;SDS011;28705;45.642;13.758;2022-08-19T12:09:58;6.05;;;2.70;;
15608;SDS011;28705;45.642;13.758;2022-08-19T12:12:27;3.15;;;2.83;;
15608;SDS011;28705;45.642;13.758;2022-08-19T12:14:54;3.42;;;2.80;;
15608;SDS011;28705;45.642;13.758;2022-08-19T12:17:23;6.90;;;2.90;;
15608;SDS011;28705;45.642;13.758;2022-08-19T12:19:52;5.18;;;3.25;;
15608;SDS011;28705;45.642;13.758;2022-08-19T12:22:19;6.35;;;2.50;;
15608;SDS011;28705;45.642;13.758;2022-08-19T12:24:46;16.95;;;4.32;;
15608;SDS011;28705;45.642;13.758;2022-08-19T12:27:15;8.85;;;3.67;;
15608;SDS011;28705;45.642;13.758;2022-08-19T12:29:44;8.73;;;3.60;;
15608;SDS011;28705;45.642;13.758;2022-08-19T12:32:11;9.40;;;2.90;;
15608;SDS011;28705;45.642;13.758;2022-08-19T12:34:38;6.40;;;2.42;;
15608;SDS011;28705;45.642;13.758;2022-08-19T12:37:05;9.48;;;3.03;;
15608;SDS011;28705;45.642;13.758;2022-08-19T12:39:36;4.50;;;2.78;;
15608;SDS011;28705;45.642;13.758;2022-08-19T12:42:05;5.55;;;2.38;;
15608;SDS011;28705;45.642;13.758;2022-08-19T12:44:32;4.75;;;2.60;;
15608;SDS011;28705;45.642;13.758;2022-08-19T12:47:00;5.88;;;2.90;;
15608;SDS011;28705;45.642;13.758;2022-08-19T12:49:29;4.88;;;2.35;;
15608;SDS011;28705;45.642;13.758;2022-08-19T12:51:58;4.90;;;2.47;;
15608;SDS011;28705;45.642;13.758;2022-08-19T12:54:25;3.78;;;2.13;;
15608;SDS011;28705;45.642;13.758;2022-08-19T12:56:52;4.03;;;2.63;;
15608;SDS011;28705;45.642;13.758;2022-08-19T12:59:20;3.53;;;2.72;;
15608;SDS011;28705;45.642;13.758;2022-08-19T13:01:47;5.53;;;2.65;;
15608;SDS011;28705;45.642;13.758;2022-08-19T13:04:16;6.72;;;3.00;;
15608;SDS011;28705;45.642;13.758;2022-08-19T13:06:43;7.32;;;3.40;;
15608;SDS011;28705;45.642;13.758;2022-08-19T13:09:10;4.55;;;2.72;;
15608;SDS011;28705;45.642;13.758;2022-08-19T13:11:37;3.40;;;2.25;;
15608;SDS011;28705;45.642;13.758;2022-08-19T13:14:04;5.03;;;2.25;;
15608;SDS011;28705;45.642;13.758;2022-08-19T13:16:31;5.45;;;2.70;;
15608;SDS011;28705;45.642;13.758;2022-08-19T13:18:58;5.38;;;2.53;;
15608;SDS011;28705;45.642;13.758;2022-08-19T13:21:29;6.80;;;2.90;;
15608;SDS011;28705;45.642;13.758;2022-08-19T13:23:56;4.80;;;2.55;;
15608;SDS011;28705;45.642;13.758;2022-08-19T13:26:24;5.57;;;2.63;;
15608;SDS011;28705;45.642;13.758;2022-08-19T13:28:51;5.32;;;2.35;;
15608;SDS011;28705;45.642;13.758;2022-08-19T13:31:36;7.72;;;2.67;;
15608;SDS011;28705;45.642;13.758;2022-08-19T13:34:26;4.80;;;2.45;;
15608;SDS011;28705;45.642;13.758;2022-08-19T13:36:56;5.82;;;2.58;;
15608;SDS011;28705;45.642;13.758;2022-08-19T13:39:24;5.85;;;2.30;;
15608;SDS011;28705;45.642;13.758;2022-08-19T13:41:52;4.72;;;2.75;;
15608;SDS011;28705;45.642;13.758;2022-08-19T13:44:19;5.50;;;2.50;;
15608;SDS011;28705;45.642;13.758;2022-08-19T13:46:46;9.88;;;2.67;;
15608;SDS011;28705;45.642;13.758;2022-08-19T13:49:16;3.50;;;1.80;;
15608;SDS011;28705;45.642;13.758;2022-08-19T13:51:43;3.15;;;1.95;;
15608;SDS011;28705;45.642;13.758;2022-08-19T13:54:12;5.45;;;2.00;;
15608;SDS011;28705;45.642;13.758;2022-08-19T13:56:40;4.38;;;2.53;;
15608;SDS011;28705;45.642;13.758;2022-08-19T13:59:08;4.40;;;2.08;;
15608;SDS011;28705;45.642;13.758;2022-08-19T14:01:35;3.65;;;1.55;;
15608;SDS011;28705;45.642;13.758;2022-08-19T14:04:03;4.45;;;1.75;;
15608;SDS011;28705;45.642;13.758;2022-08-19T14:06:31;3.13;;;1.55;;
15608;SDS011;28705;45.642;13.758;2022-08-19T14:08:58;3.75;;;1.52;;
15608;SDS011;28705;45.642;13.758;2022-08-19T14:11:28;5.60;;;1.60;;
15608;SDS011;28705;45.642;13.758;2022-08-19T14:13:55;3.38;;;1.90;;
15608;SDS011;28705;45.642;13.758;2022-08-19T14:16:22;5.10;;;1.63;;
15608;SDS011;28705;45.642;13.758;2022-08-19T14:18:49;2.50;;;1.65;;
15608;SDS011;28705;45.642;13.758;2022-08-19T14:21:19;2.70;;;1.73;;
15608;SDS011;28705;45.642;13.758;2022-08-19T14:23:48;3.67;;;1.52;;
15608;SDS011;28705;45.642;13.758;2022-08-19T14:26:17;2.08;;;1.52;;
15608;SDS011;28705;45.642;13.758;2022-08-19T14:28:46;2.60;;;1.10;;
15608;SDS011;28705;45.642;13.758;2022-08-19T14:31:15;3.05;;;1.27;;
15608;SDS011;28705;45.642;13.758;2022-08-19T14:33:44;2.72;;;1.27;;
15608;SDS011;28705;45.642;13.758;2022-08-19T14:36:11;1.85;;;1.17;;
15608;SDS011;28705;45.642;13.758;2022-08-19T14:38:39;1.90;;;1.30;;
15608;SDS011;28705;45.642;13.758;2022-08-19T14:41:07;1.75;;;1.15;;
15608;SDS011;28705;45.642;13.758;2022-08-19T14:43:36;3.25;;;1.20;;
15608;SDS011;28705;45.642;13.758;2022-08-19T14:46:04;3.40;;;1.60;;